sensor_id;sensor_type;location;lat;lon;timestamp;pressure;altitude;pressure_sealevel;temperature
43292;BMP280;28754;47.700;7.924;2023-04-25T00:00:17;90823.00;;;8.53
43292;BMP280;28754;47.700;7.924;2023-04-25T00:03:04;90819.94;;;8.51
43292;BMP280;28754;47.700;7.924;2023-04-25T00:05:52;90813.09;;;8.51
43292;BMP280;28754;47.700;7.924;2023-04-25T00:08:40;90832.44;;;8.52
43292;BMP280;28754;47.700;7.924;2023-04-25T00:11:27;90829.91;;;8.47
43292;BMP280;28754;47.700;7.924;2023-04-25T00:14:14;90833.25;;;8.43
43292;BMP280;28754;47.700;7.924;2023-04-25T00:17:01;90829.41;;;8.40
43292;BMP280;28754;47.700;7.924;2023-04-25T00:19:47;90831.19;;;8.40
43292;BMP280;28754;47.700;7.924;2023-04-25T00:22:34;90829.91;;;8.42
43292;BMP280;28754;47.700;7.924;2023-04-25T00:25:23;90828.38;;;8.46
43292;BMP280;28754;47.700;7.924;2023-04-25T00:28:11;90827.88;;;8.44
43292;BMP280;28754;47.700;7.924;2023-04-25T00:30:58;90831.69;;;8.47
43292;BMP280;28754;47.700;7.924;2023-04-25T00:33:45;90824.53;;;8.49
43292;BMP280;28754;47.700;7.924;2023-04-25T00:36:31;90826.84;;;8.50
43292;BMP280;28754;47.700;7.924;2023-04-25T00:39:18;90826.84;;;8.50
43292;BMP280;28754;47.700;7.924;2023-04-25T00:42:05;90815.13;;;8.49
43292;BMP280;28754;47.700;7.924;2023-04-25T00:44:53;90811.53;;;8.50
43292;BMP280;28754;47.700;7.924;2023-04-25T00:47:40;90801.59;;;8.54
43292;BMP280;28754;47.700;7.924;2023-04-25T00:50:27;90816.38;;;8.56
43292;BMP280;28754;47.700;7.924;2023-04-25T00:53:14;90812.31;;;8.56
43292;BMP280;28754;47.700;7.924;2023-04-25T00:56:02;90808.97;;;8.55
43292;BMP280;28754;47.700;7.924;2023-04-25T00:58:53;90795.22;;;8.51
43292;BMP280;28754;47.700;7.924;2023-04-25T01:01:41;90803.63;;;8.52
43292;BMP280;28754;47.700;7.924;2023-04-25T01:04:29;90798.53;;;8.47
43292;BMP280;28754;47.700;7.924;2023-04-25T01:07:16;90792.16;;;8.44
43292;BMP280;28754;47.700;7.924;2023-04-25T01:10:05;90784.78;;;8.43
43292;BMP280;28754;47.700;7.924;2023-04-25T01:12:52;90785.03;;;8.41
43292;BMP280;28754;47.700;7.924;2023-04-25T01:15:39;90786.03;;;8.40
43292;BMP280;28754;47.700;7.924;2023-04-25T01:18:26;90795.47;;;8.40
43292;BMP280;28754;47.700;7.924;2023-04-25T01:21:13;90785.28;;;8.40
43292;BMP280;28754;47.700;7.924;2023-04-25T01:24:01;90793.97;;;8.39
43292;BMP280;28754;47.700;7.924;2023-04-25T01:26:48;90769.97;;;8.40
43292;BMP280;28754;47.700;7.924;2023-04-25T01:29:39;90779.16;;;8.36
43292;BMP280;28754;47.700;7.924;2023-04-25T01:32:26;90781.47;;;8.32
43292;BMP280;28754;47.700;7.924;2023-04-25T01:35:15;90778.91;;;8.32
43292;BMP280;28754;47.700;7.924;2023-04-25T01:38:02;90775.34;;;8.33
43292;BMP280;28754;47.700;7.924;2023-04-25T01:40:51;90772.53;;;8.35
43292;BMP280;28754;47.700;7.924;2023-04-25T01:43:40;90773.81;;;8.37
43292;BMP280;28754;47.700;7.924;2023-04-25T01:46:27;90763.09;;;8.35
43292;BMP280;28754;47.700;7.924;2023-04-25T01:49:14;90765.88;;;8.34
43292;BMP280;28754;47.700;7.924;2023-04-25T01:52:03;90767.19;;;8.36
43292;BMP280;28754;47.700;7.924;2023-04-25T01:54:51;90768.19;;;8.35
43292;BMP280;28754;47.700;7.924;2023-04-25T01:57:38;90761.81;;;8.33
43292;BMP280;28754;47.700;7.924;2023-04-25T02:01:25;90758.25;;;8.29
43292;BMP280;28754;47.700;7.924;2023-04-25T02:04:34;90751.91;;;8.22
43292;BMP280;28754;47.700;7.924;2023-04-25T02:07:32;90757.50;;;8.19
43292;BMP280;28754;47.700;7.924;2023-04-25T02:10:19;90758.03;;;8.16
43292;BMP280;28754;47.700;7.924;2023-04-25T02:13:23;90757.53;;;8.09
43292;BMP280;28754;47.700;7.924;2023-04-25T02:16:18;90758.78;;;8.06
43292;BMP280;28754;47.700;7.924;2023-04-25T02:19:06;90750.88;;;8.03
43292;BMP280;28754;47.700;7.924;2023-04-25T02:21:53;90748.84;;;8.00
43292;BMP280;28754;47.700;7.924;2023-04-25T02:24:40;90750.09;;;7.97
43292;BMP280;28754;47.700;7.924;2023-04-25T02:27:26;90749.88;;;7.94
43292;BMP280;28754;47.700;7.924;2023-04-25T02:30:13;90751.16;;;7.91
43292;BMP280;28754;47.700;7.924;2023-04-25T02:33:00;90752.41;;;7.89
43292;BMP280;28754;47.700;7.924;2023-04-25T02:35:47;90744.53;;;7.81
43292;BMP280;28754;47.700;7.924;2023-04-25T02:38:33;90757.50;;;7.79
43292;BMP280;28754;47.700;7.924;2023-04-25T02:41:20;90753.19;;;7.75
43292;BMP280;28754;47.700;7.924;2023-04-25T02:44:08;90749.84;;;7.69
43292;BMP280;28754;47.700;7.924;2023-04-25T02:46:54;90760.81;;;7.65
43292;BMP280;28754;47.700;7.924;2023-04-25T02:49:45;90755.22;;;7.63
43292;BMP280;28754;47.700;7.924;2023-04-25T02:52:32;90756.47;;;7.60
43292;BMP280;28754;47.700;7.924;2023-04-25T02:55:28;90753.94;;;7.60
43292;BMP280;28754;47.700;7.924;2023-04-25T02:58:16;90752.16;;;7.61
43292;BMP280;28754;47.700;7.924;2023-04-25T03:01:09;90749.59;;;7.61
43292;BMP280;28754;47.700;7.924;2023-04-25T03:03:56;90750.88;;;7.63
43292;BMP280;28754;47.700;7.924;2023-04-25T03:06:42;90742.72;;;7.66
43292;BMP280;28754;47.700;7.924;2023-04-25T03:09:29;90745.28;;;7.71
43292;BMP280;28754;47.700;7.924;2023-04-25T03:12:16;90734.84;;;7.73
43292;BMP280;28754;47.700;7.924;2023-04-25T03:15:04;90737.91;;;7.75
43292;BMP280;28754;47.700;7.924;2023-04-25T03:17:51;90733.31;;;7.77
43292;BMP280;28754;47.700;7.924;2023-04-25T03:20:37;90726.44;;;7.77
43292;BMP280;28754;47.700;7.924;2023-04-25T03:23:25;90721.09;;;7.79
43292;BMP280;28754;47.700;7.924;2023-04-25T03:26:12;90717.50;;;7.75
43292;BMP280;28754;47.700;7.924;2023-04-25T03:28:59;90719.81;;;7.66
43292;BMP280;28754;47.700;7.924;2023-04-25T03:31:46;90712.16;;;7.66
43292;BMP280;28754;47.700;7.924;2023-04-25T03:34:32;90697.38;;;7.63
43292;BMP280;28754;47.700;7.924;2023-04-25T03:37:19;90700.44;;;7.65
43292;BMP280;28754;47.700;7.924;2023-04-25T03:40:06;90699.66;;;7.65
43292;BMP280;28754;47.700;7.924;2023-04-25T03:43:13;90701.22;;;7.66
43292;BMP280;28754;47.700;7.924;2023-04-25T03:46:06;90690.25;;;7.65
43292;BMP280;28754;47.700;7.924;2023-04-25T03:48:53;90694.56;;;7.65
43292;BMP280;28754;47.700;7.924;2023-04-25T03:51:46;90696.63;;;7.68
43292;BMP280;28754;47.700;7.924;2023-04-25T03:54:33;90678.03;;;7.62
43292;BMP280;28754;47.700;7.924;2023-04-25T03:57:26;90677.50;;;7.65
43292;BMP280;28754;47.700;7.924;2023-04-25T04:01:16;90687.72;;;7.70
43292;BMP280;28754;47.700;7.924;2023-04-25T04:04:46;90682.84;;;7.69
43292;BMP280;28754;47.700;7.924;2023-04-25T04:07:33;90673.94;;;7.71
43292;BMP280;28754;47.700;7.924;2023-04-25T04:10:26;90682.09;;;7.73
43292;BMP280;28754;47.700;7.924;2023-04-25T04:13:15;90677.25;;;7.77
43292;BMP280;28754;47.700;7.924;2023-04-25T04:16:02;90676.47;;;7.76
43292;BMP280;28754;47.700;7.924;2023-04-25T04:18:50;90682.34;;;7.77
43292;BMP280;28754;47.700;7.924;2023-04-25T04:21:37;90679.53;;;7.73
43292;BMP280;28754;47.700;7.924;2023-04-25T04:24:24;90674.44;;;7.73
43292;BMP280;28754;47.700;7.924;2023-04-25T04:27:21;90683.63;;;7.74
43292;BMP280;28754;47.700;7.924;2023-04-25T04:30:28;90684.09;;;7.76
43292;BMP280;28754;47.700;7.924;2023-04-25T04:33:20;90684.13;;;7.81
43292;BMP280;28754;47.700;7.924;2023-04-25T04:36:10;90695.34;;;7.85
43292;BMP280;28754;47.700;7.924;2023-04-25T04:38:57;90699.91;;;7.88
43292;BMP280;28754;47.700;7.924;2023-04-25T04:41:55;90695.31;;;7.90
43292;BMP280;28754;47.700;7.924;2023-04-25T04:44:59;90698.88;;;7.94
43292;BMP280;28754;47.700;7.924;2023-04-25T04:48:06;90686.91;;;7.94
43292;BMP280;28754;47.700;7.924;2023-04-25T04:51:12;90688.16;;;7.97
43292;BMP280;28754;47.700;7.924;2023-04-25T04:54:13;90692.50;;;8.01
43292;BMP280;28754;47.700;7.924;2023-04-25T04:57:14;90688.16;;;8.07
43292;BMP280;28754;47.700;7.924;2023-04-25T05:00:35;90693.03;;;8.13
43292;BMP280;28754;47.700;7.924;2023-04-25T05:04:00;90679.25;;;8.19
43292;BMP280;28754;47.700;7.924;2023-04-25T05:07:03;90682.03;;;8.22
43292;BMP280;28754;47.700;7.924;2023-04-25T05:10:26;90681.00;;;8.28
43292;BMP280;28754;47.700;7.924;2023-04-25T05:13:15;90683.28;;;8.30
43292;BMP280;28754;47.700;7.924;2023-04-25T05:16:12;90680.47;;;8.31
43292;BMP280;28754;47.700;7.924;2023-04-25T05:19:28;90684.56;;;8.32
43292;BMP280;28754;47.700;7.924;2023-04-25T05:22:50;90706.25;;;8.30
43292;BMP280;28754;47.700;7.924;2023-04-25T05:26:00;90720.78;;;8.24
43292;BMP280;28754;47.700;7.924;2023-04-25T05:28:55;90726.69;;;8.15
43292;BMP280;28754;47.700;7.924;2023-04-25T05:32:14;90731.78;;;7.86
43292;BMP280;28754;47.700;7.924;2023-04-25T05:35:01;90732.78;;;7.60
43292;BMP280;28754;47.700;7.924;2023-04-25T05:37:53;90742.47;;;7.43
43292;BMP280;28754;47.700;7.924;2023-04-25T05:40:50;90723.34;;;7.31
43292;BMP280;28754;47.700;7.924;2023-04-25T05:43:53;90728.69;;;7.24
43292;BMP280;28754;47.700;7.924;2023-04-25T05:46:47;90725.38;;;7.19
43292;BMP280;28754;47.700;7.924;2023-04-25T05:49:52;90734.53;;;7.15
43292;BMP280;28754;47.700;7.924;2023-04-25T05:52:47;90736.03;;;7.16
43292;BMP280;28754;47.700;7.924;2023-04-25T05:55:52;90725.34;;;7.14
43292;BMP280;28754;47.700;7.924;2023-04-25T05:58:44;90722.03;;;7.14
43292;BMP280;28754;47.700;7.924;2023-04-25T06:01:32;90730.94;;;7.11
43292;BMP280;28754;47.700;7.924;2023-04-25T06:04:22;90717.72;;;7.09
43292;BMP280;28754;47.700;7.924;2023-04-25T06:07:09;90724.88;;;7.12
43292;BMP280;28754;47.700;7.924;2023-04-25T06:09:57;90716.16;;;7.03
43292;BMP280;28754;47.700;7.924;2023-04-25T06:12:44;90719.22;;;7.05
43292;BMP280;28754;47.700;7.924;2023-04-25T06:15:32;90717.47;;;7.06
43292;BMP280;28754;47.700;7.924;2023-04-25T06:18:20;90721.78;;;7.05
43292;BMP280;28754;47.700;7.924;2023-04-25T06:21:08;90722.81;;;7.09
43292;BMP280;28754;47.700;7.924;2023-04-25T06:23:55;90729.94;;;7.12
43292;BMP280;28754;47.700;7.924;2023-04-25T06:26:44;90722.31;;;7.12
43292;BMP280;28754;47.700;7.924;2023-04-25T06:29:30;90726.88;;;7.10
43292;BMP280;28754;47.700;7.924;2023-04-25T06:32:18;90726.13;;;7.15
43292;BMP280;28754;47.700;7.924;2023-04-25T06:35:05;90724.88;;;7.12
43292;BMP280;28754;47.700;7.924;2023-04-25T06:37:53;90734.00;;;7.08
43292;BMP280;28754;47.700;7.924;2023-04-25T06:40:43;90728.41;;;7.06
43292;BMP280;28754;47.700;7.924;2023-04-25T06:43:30;90721.78;;;7.05
43292;BMP280;28754;47.700;7.924;2023-04-25T06:55:06;90720.78;;;7.06
43292;BMP280;28754;47.700;7.924;2023-04-25T06:58:15;90716.44;;;7.07
43292;BMP280;28754;47.700;7.924;2023-04-25T07:01:22;90725.88;;;7.06
43292;BMP280;28754;47.700;7.924;2023-04-25T07:04:10;90735.00;;;7.02
43292;BMP280;28754;47.700;7.924;2023-04-25T07:07:01;90730.44;;;6.99
43292;BMP280;28754;47.700;7.924;2023-04-25T07:09:57;90735.00;;;6.97
43292;BMP280;28754;47.700;7.924;2023-04-25T07:12:45;90726.59;;;6.97
43292;BMP280;28754;47.700;7.924;2023-04-25T07:15:31;90739.56;;;6.95
43292;BMP280;28754;47.700;7.924;2023-04-25T07:18:19;90736.75;;;6.97
43292;BMP280;28754;47.700;7.924;2023-04-25T07:21:12;90737.78;;;6.96
43292;BMP280;28754;47.700;7.924;2023-04-25T07:24:00;90746.44;;;6.95
43292;BMP280;28754;47.700;7.924;2023-04-25T07:26:55;90737.78;;;6.91
43292;BMP280;28754;47.700;7.924;2023-04-25T07:29:47;90738.03;;;6.89
43292;BMP280;28754;47.700;7.924;2023-04-25T07:32:35;90737.78;;;6.91
43292;BMP280;28754;47.700;7.924;2023-04-25T07:35:22;90736.53;;;6.93
43292;BMP280;28754;47.700;7.924;2023-04-25T07:38:09;90748.72;;;7.01
43292;BMP280;28754;47.700;7.924;2023-04-25T07:40:57;90740.09;;;7.02
43292;BMP280;28754;47.700;7.924;2023-04-25T07:43:44;90745.19;;;7.07
43292;BMP280;28754;47.700;7.924;2023-04-25T07:46:31;90752.34;;;7.10
43292;BMP280;28754;47.700;7.924;2023-04-25T07:49:21;90759.47;;;7.13
43292;BMP280;28754;47.700;7.924;2023-04-25T07:52:09;90767.63;;;7.10
43292;BMP280;28754;47.700;7.924;2023-04-25T07:54:59;90769.91;;;7.12
43292;BMP280;28754;47.700;7.924;2023-04-25T07:57:54;90760.97;;;7.09
43292;BMP280;28754;47.700;7.924;2023-04-25T08:00:41;90771.16;;;7.09
43292;BMP280;28754;47.700;7.924;2023-04-25T08:03:49;90783.91;;;7.14
43292;BMP280;28754;47.700;7.924;2023-04-25T08:06:44;90789.50;;;7.16
43292;BMP280;28754;47.700;7.924;2023-04-25T08:09:37;90796.38;;;7.16
43292;BMP280;28754;47.700;7.924;2023-04-25T08:12:28;90793.59;;;7.12
43292;BMP280;28754;47.700;7.924;2023-04-25T08:15:14;90800.19;;;7.08
43292;BMP280;28754;47.700;7.924;2023-04-25T08:18:02;90805.28;;;7.08
43292;BMP280;28754;47.700;7.924;2023-04-25T08:20:50;90808.81;;;7.07
43292;BMP280;28754;47.700;7.924;2023-04-25T08:23:38;90831.78;;;7.17
43292;BMP280;28754;47.700;7.924;2023-04-25T08:26:42;90829.25;;;7.17
43292;BMP280;28754;47.700;7.924;2023-04-25T08:29:34;90821.84;;;7.16
43292;BMP280;28754;47.700;7.924;2023-04-25T08:32:21;90835.84;;;7.18
43292;BMP280;28754;47.700;7.924;2023-04-25T08:35:26;90839.13;;;7.14
43292;BMP280;28754;47.700;7.924;2023-04-25T08:38:13;90842.22;;;7.20
43292;BMP280;28754;47.700;7.924;2023-04-25T08:41:00;90844.03;;;7.25
43292;BMP280;28754;47.700;7.924;2023-04-25T08:43:51;90851.41;;;7.26
43292;BMP280;28754;47.700;7.924;2023-04-25T08:46:40;90861.88;;;7.25
43292;BMP280;28754;47.700;7.924;2023-04-25T08:49:39;90867.19;;;7.23
43292;BMP280;28754;47.700;7.924;2023-04-25T08:52:43;90865.94;;;7.31
43292;BMP280;28754;47.700;7.924;2023-04-25T08:55:32;90882.53;;;7.43
43292;BMP280;28754;47.700;7.924;2023-04-25T08:58:20;90888.66;;;7.42
43292;BMP280;28754;47.700;7.924;2023-04-25T09:01:07;90881.78;;;7.38
43292;BMP280;28754;47.700;7.924;2023-04-25T09:04:02;90884.03;;;7.39
43292;BMP280;28754;47.700;7.924;2023-04-25T09:06:48;90887.88;;;7.42
43292;BMP280;28754;47.700;7.924;2023-04-25T09:09:35;90894.28;;;7.54
43292;BMP280;28754;47.700;7.924;2023-04-25T09:12:22;90895.09;;;7.59
43292;BMP280;28754;47.700;7.924;2023-04-25T09:15:13;90897.91;;;7.68
43292;BMP280;28754;47.700;7.924;2023-04-25T09:18:08;90890.75;;;7.70
43292;BMP280;28754;47.700;7.924;2023-04-25T09:21:10;90897.16;;;7.72
43292;BMP280;28754;47.700;7.924;2023-04-25T09:23:57;90903.28;;;7.81
43292;BMP280;28754;47.700;7.924;2023-04-25T09:26:46;90915.03;;;7.92
43292;BMP280;28754;47.700;7.924;2023-04-25T09:29:37;90904.34;;;8.00
43292;BMP280;28754;47.700;7.924;2023-04-25T09:32:25;90919.66;;;8.15
43292;BMP280;28754;47.700;7.924;2023-04-25T09:35:26;90917.66;;;8.22
43292;BMP280;28754;47.700;7.924;2023-04-25T09:38:15;90909.50;;;8.34
43292;BMP280;28754;47.700;7.924;2023-04-25T09:41:13;90922.75;;;8.46
43292;BMP280;28754;47.700;7.924;2023-04-25T09:44:04;90909.75;;;8.48
43292;BMP280;28754;47.700;7.924;2023-04-25T09:46:57;90923.78;;;8.50
43292;BMP280;28754;47.700;7.924;2023-04-25T09:49:47;90936.81;;;8.58
43292;BMP280;28754;47.700;7.924;2023-04-25T09:52:35;90931.97;;;8.62
43292;BMP280;28754;47.700;7.924;2023-04-25T09:55:40;90943.69;;;8.63
43292;BMP280;28754;47.700;7.924;2023-04-25T09:58:30;90942.19;;;8.77
43292;BMP280;28754;47.700;7.924;2023-04-25T10:01:17;90936.00;;;8.97
43292;BMP280;28754;47.700;7.924;2023-04-25T10:04:24;90936.72;;;9.27
43292;BMP280;28754;47.700;7.924;2023-04-25T10:07:29;90936.63;;;9.57
43292;BMP280;28754;47.700;7.924;2023-04-25T10:10:17;90935.25;;;9.84
43292;BMP280;28754;47.700;7.924;2023-04-25T10:13:05;90937.97;;;10.02
43292;BMP280;28754;47.700;7.924;2023-04-25T10:15:53;90940.22;;;10.19
43292;BMP280;28754;47.700;7.924;2023-04-25T10:18:41;90925.22;;;10.40
43292;BMP280;28754;47.700;7.924;2023-04-25T10:21:31;90933.50;;;10.61
43292;BMP280;28754;47.700;7.924;2023-04-25T10:24:20;90930.59;;;10.44
43292;BMP280;28754;47.700;7.924;2023-04-25T10:27:07;90933.53;;;10.23
43292;BMP280;28754;47.700;7.924;2023-04-25T10:30:07;90933.03;;;10.21
43292;BMP280;28754;47.700;7.924;2023-04-25T10:32:59;90934.41;;;10.46
43292;BMP280;28754;47.700;7.924;2023-04-25T10:35:45;90931.03;;;10.51
43292;BMP280;28754;47.700;7.924;2023-04-25T10:38:32;90935.41;;;10.45
43292;BMP280;28754;47.700;7.924;2023-04-25T10:41:20;90941.41;;;10.31
43292;BMP280;28754;47.700;7.924;2023-04-25T10:44:09;90937.59;;;10.24
43292;BMP280;28754;47.700;7.924;2023-04-25T10:47:00;90947.16;;;10.08
43292;BMP280;28754;47.700;7.924;2023-04-25T10:49:50;90963.13;;;9.81
43292;BMP280;28754;47.700;7.924;2023-04-25T10:52:43;90964.50;;;9.58
43292;BMP280;28754;47.700;7.924;2023-04-25T10:55:52;90949.97;;;9.34
43292;BMP280;28754;47.700;7.924;2023-04-25T10:58:51;90955.16;;;9.20
43292;BMP280;28754;47.700;7.924;2023-04-25T11:01:41;90970.44;;;9.24
43292;BMP280;28754;47.700;7.924;2023-04-25T11:04:44;90959.44;;;9.34
43292;BMP280;28754;47.700;7.924;2023-04-25T11:07:45;90955.84;;;9.50
43292;BMP280;28754;47.700;7.924;2023-04-25T11:10:39;90970.09;;;9.65
43292;BMP280;28754;47.700;7.924;2023-04-25T11:13:34;90968.56;;;9.64
43292;BMP280;28754;47.700;7.924;2023-04-25T11:16:27;90985.44;;;9.60
43292;BMP280;28754;47.700;7.924;2023-04-25T11:19:24;90976.25;;;9.55
43292;BMP280;28754;47.700;7.924;2023-04-25T11:22:21;90964.56;;;9.39
43292;BMP280;28754;47.700;7.924;2023-04-25T11:25:11;90985.47;;;9.41
43292;BMP280;28754;47.700;7.924;2023-04-25T11:28:21;90982.41;;;9.44
43292;BMP280;28754;47.700;7.924;2023-04-25T11:31:09;90976.25;;;9.45
43292;BMP280;28754;47.700;7.924;2023-04-25T11:34:00;90971.69;;;9.42
43292;BMP280;28754;47.700;7.924;2023-04-25T11:36:47;90972.72;;;9.36
43292;BMP280;28754;47.700;7.924;2023-04-25T11:39:36;90970.91;;;9.36
43292;BMP280;28754;47.700;7.924;2023-04-25T11:42:29;90969.41;;;9.35
43292;BMP280;28754;47.700;7.924;2023-04-25T11:45:16;90978.06;;;9.34
43292;BMP280;28754;47.700;7.924;2023-04-25T11:48:05;90983.97;;;9.35
43292;BMP280;28754;47.700;7.924;2023-04-25T11:50:51;90983.44;;;9.38
43292;BMP280;28754;47.700;7.924;2023-04-25T11:53:41;90977.03;;;9.40
43292;BMP280;28754;47.700;7.924;2023-04-25T11:56:29;90978.59;;;9.41
43292;BMP280;28754;47.700;7.924;2023-04-25T11:59:24;90986.22;;;9.51
43292;BMP280;28754;47.700;7.924;2023-04-25T12:02:25;90975.16;;;9.80
43292;BMP280;28754;47.700;7.924;2023-04-25T12:05:15;90980.44;;;10.03
43292;BMP280;28754;47.700;7.924;2023-04-25T12:08:16;90980.31;;;10.28
43292;BMP280;28754;47.700;7.924;2023-04-25T12:11:21;90978.84;;;10.60
43292;BMP280;28754;47.700;7.924;2023-04-25T12:14:08;90977.19;;;10.79
43292;BMP280;28754;47.700;7.924;2023-04-25T12:17:03;90985.34;;;10.81
43292;BMP280;28754;47.700;7.924;2023-04-25T12:19:50;90977.22;;;10.69
43292;BMP280;28754;47.700;7.924;2023-04-25T12:22:37;90998.91;;;10.48
43292;BMP280;28754;47.700;7.924;2023-04-25T12:25:41;91004.88;;;10.29
43292;BMP280;28754;47.700;7.924;2023-04-25T12:29:17;90998.03;;;10.15
43292;BMP280;28754;47.700;7.924;2023-04-25T12:32:07;91008.25;;;10.20
43292;BMP280;28754;47.700;7.924;2023-04-25T12:34:57;91013.28;;;10.34
43292;BMP280;28754;47.700;7.924;2023-04-25T12:37:43;91013.00;;;10.46
43292;BMP280;28754;47.700;7.924;2023-04-25T12:40:36;91002.94;;;10.54
43292;BMP280;28754;47.700;7.924;2023-04-25T12:43:41;91016.94;;;10.66
43292;BMP280;28754;47.700;7.924;2023-04-25T12:50:51;90994.63;;;11.10
43292;BMP280;28754;47.700;7.924;2023-04-25T12:53:48;91001.09;;;11.30
43292;BMP280;28754;47.700;7.924;2023-04-25T13:00:16;91011.03;;;11.37
43292;BMP280;28754;47.700;7.924;2023-04-25T13:03:04;91003.94;;;11.29
43292;BMP280;28754;47.700;7.924;2023-04-25T13:09:25;91014.44;;;10.95
43292;BMP280;28754;47.700;7.924;2023-04-25T13:12:12;91008.75;;;10.69
43292;BMP280;28754;47.700;7.924;2023-04-25T13:15:09;91013.44;;;10.53
43292;BMP280;28754;47.700;7.924;2023-04-25T13:17:57;91022.50;;;10.30
43292;BMP280;28754;47.700;7.924;2023-04-25T13:20:44;91016.03;;;9.95
43292;BMP280;28754;47.700;7.924;2023-04-25T13:23:33;91023.25;;;9.63
43292;BMP280;28754;47.700;7.924;2023-04-25T13:26:27;91030.97;;;9.39
43292;BMP280;28754;47.700;7.924;2023-04-25T13:29:14;91035.59;;;9.37
43292;BMP280;28754;47.700;7.924;2023-04-25T13:32:01;91035.84;;;9.35
43292;BMP280;28754;47.700;7.924;2023-04-25T13:34:51;91031.47;;;9.36
43292;BMP280;28754;47.700;7.924;2023-04-25T13:37:53;91041.97;;;9.39
43292;BMP280;28754;47.700;7.924;2023-04-25T13:40:43;91038.63;;;9.49
43292;BMP280;28754;47.700;7.924;2023-04-25T13:43:35;91033.00;;;9.52
43292;BMP280;28754;47.700;7.924;2023-04-25T13:46:22;91037.84;;;9.53
43292;BMP280;28754;47.700;7.924;2023-04-25T13:49:08;91037.59;;;9.55
43292;BMP280;28754;47.700;7.924;2023-04-25T13:51:55;91043.44;;;9.60
43292;BMP280;28754;47.700;7.924;2023-04-25T13:54:45;91055.75;;;9.58
43292;BMP280;28754;47.700;7.924;2023-04-25T13:57:33;91068.28;;;9.50
43292;BMP280;28754;47.700;7.924;2023-04-25T14:00:20;91067.50;;;9.44
43292;BMP280;28754;47.700;7.924;2023-04-25T14:03:07;91068.28;;;9.40
43292;BMP280;28754;47.700;7.924;2023-04-25T14:05:54;91075.94;;;9.40
43292;BMP280;28754;47.700;7.924;2023-04-25T14:08:41;91067.25;;;9.31
43292;BMP280;28754;47.700;7.924;2023-04-25T14:11:31;91068.28;;;9.25
43292;BMP280;28754;47.700;7.924;2023-04-25T14:14:21;91068.53;;;9.38
43292;BMP280;28754;47.700;7.924;2023-04-25T14:17:08;91057.47;;;9.72
43292;BMP280;28754;47.700;7.924;2023-04-25T14:19:58;91052.59;;;9.95
43292;BMP280;28754;47.700;7.924;2023-04-25T14:22:45;91064.03;;;10.13
43292;BMP280;28754;47.700;7.924;2023-04-25T14:25:56;91055.06;;;10.15
43292;BMP280;28754;47.700;7.924;2023-04-25T14:28:51;91066.84;;;10.11
43292;BMP280;28754;47.700;7.924;2023-04-25T14:32:14;91063.06;;;10.04
43292;BMP280;28754;47.700;7.924;2023-04-25T14:35:03;91068.41;;;10.02
43292;BMP280;28754;47.700;7.924;2023-04-25T14:37:51;91060.78;;;9.97
43292;BMP280;28754;47.700;7.924;2023-04-25T14:40:41;91063.09;;;9.74
43292;BMP280;28754;47.700;7.924;2023-04-25T14:43:31;91068.00;;;9.56
43292;BMP280;28754;47.700;7.924;2023-04-25T14:46:21;91069.03;;;9.40
43292;BMP280;28754;47.700;7.924;2023-04-25T14:49:11;91070.09;;;9.20
43292;BMP280;28754;47.700;7.924;2023-04-25T14:52:05;91070.84;;;9.05
43292;BMP280;28754;47.700;7.924;2023-04-25T14:54:55;91084.88;;;8.93
43292;BMP280;28754;47.700;7.924;2023-04-25T14:57:58;91073.09;;;8.87
43292;BMP280;28754;47.700;7.924;2023-04-25T15:00:55;91065.22;;;9.13
43292;BMP280;28754;47.700;7.924;2023-04-25T15:03:48;91069.03;;;9.40
43292;BMP280;28754;47.700;7.924;2023-04-25T15:06:37;91069.28;;;9.49
43292;BMP280;28754;47.700;7.924;2023-04-25T15:09:24;91065.97;;;9.43
43292;BMP280;28754;47.700;7.924;2023-04-25T15:12:30;91066.22;;;9.52
43292;BMP280;28754;47.700;7.924;2023-04-25T15:15:34;91061.88;;;9.42
43292;BMP280;28754;47.700;7.924;2023-04-25T15:18:21;91070.84;;;9.25
43292;BMP280;28754;47.700;7.924;2023-04-25T15:21:15;91076.19;;;9.09
43292;BMP280;28754;47.700;7.924;2023-04-25T15:24:02;91078.22;;;9.02
43292;BMP280;28754;47.700;7.924;2023-04-25T15:27:01;91070.84;;;9.00
43292;BMP280;28754;47.700;7.924;2023-04-25T15:29:49;91078.25;;;9.07
43292;BMP280;28754;47.700;7.924;2023-04-25T15:32:36;91089.75;;;9.09
43292;BMP280;28754;47.700;7.924;2023-04-25T15:35:23;91097.91;;;9.01
43292;BMP280;28754;47.700;7.924;2023-04-25T15:38:26;91107.06;;;8.73
43292;BMP280;28754;47.700;7.924;2023-04-25T15:41:13;91100.88;;;8.49
43292;BMP280;28754;47.700;7.924;2023-04-25T15:44:00;91100.84;;;8.39
43292;BMP280;28754;47.700;7.924;2023-04-25T15:46:50;91090.09;;;8.32
43292;BMP280;28754;47.700;7.924;2023-04-25T15:49:36;91092.16;;;8.40
43292;BMP280;28754;47.700;7.924;2023-04-25T15:52:26;91092.66;;;8.42
43292;BMP280;28754;47.700;7.924;2023-04-25T15:55:14;91113.63;;;8.49
43292;BMP280;28754;47.700;7.924;2023-04-25T16:03:23;91105.72;;;8.51
43292;BMP280;28754;47.700;7.924;2023-04-25T16:07:54;91092.69;;;8.47
43292;BMP280;28754;47.700;7.924;2023-04-25T16:11:25;91087.13;;;8.60
43292;BMP280;28754;47.700;7.924;2023-04-25T16:17:20;91096.34;;;8.81
43292;BMP280;28754;47.700;7.924;2023-04-25T16:20:22;91104.00;;;8.90
43292;BMP280;28754;47.700;7.924;2023-04-25T16:23:29;91089.72;;;8.94
43292;BMP280;28754;47.700;7.924;2023-04-25T16:26:25;91105.84;;;9.05
43292;BMP280;28754;47.700;7.924;2023-04-25T16:29:29;91085.63;;;9.08
43292;BMP280;28754;47.700;7.924;2023-04-25T16:33:11;91090.75;;;9.18
43292;BMP280;28754;47.700;7.924;2023-04-25T16:44:50;91102.00;;;9.47
43292;BMP280;28754;47.700;7.924;2023-04-25T16:48:14;91100.47;;;9.41
43292;BMP280;28754;47.700;7.924;2023-04-25T16:51:20;91106.09;;;9.33
43292;BMP280;28754;47.700;7.924;2023-04-25T16:54:07;91099.97;;;9.29
43292;BMP280;28754;47.700;7.924;2023-04-25T16:56:53;91097.16;;;9.21
43292;BMP280;28754;47.700;7.924;2023-04-25T16:59:40;91098.44;;;9.18
43292;BMP280;28754;47.700;7.924;2023-04-25T17:02:32;91104.28;;;9.19
43292;BMP280;28754;47.700;7.924;2023-04-25T17:05:24;91100.97;;;9.18
43292;BMP280;28754;47.700;7.924;2023-04-25T17:08:11;91115.56;;;9.18
43292;BMP280;28754;47.700;7.924;2023-04-25T17:11:10;91116.56;;;9.17
43292;BMP280;28754;47.700;7.924;2023-04-25T17:14:12;91112.72;;;9.14
43292;BMP280;28754;47.700;7.924;2023-04-25T17:16:59;91115.03;;;9.16
43292;BMP280;28754;47.700;7.924;2023-04-25T17:19:46;91120.91;;;9.11
43292;BMP280;28754;47.700;7.924;2023-04-25T17:22:51;91114.25;;;9.05
43292;BMP280;28754;47.700;7.924;2023-04-25T17:25:57;91128.53;;;9.01